sensor_id;sensor_type;location;lat;lon;timestamp;temperature;humidity
16515;DHT22;8370;52.556;7.970;2023-06-01T00:01:07;12.90;99.90
16515;DHT22;8370;52.556;7.970;2023-06-01T00:03:33;13.00;99.90
16515;DHT22;8370;52.556;7.970;2023-06-01T00:05:59;13.00;99.90
16515;DHT22;8370;52.556;7.970;2023-06-01T00:08:25;13.00;99.90
16515;DHT22;8370;52.556;7.970;2023-06-01T00:10:51;13.00;99.90
16515;DHT22;8370;52.556;7.970;2023-06-01T00:13:16;13.00;99.90
16515;DHT22;8370;52.556;7.970;2023-06-01T00:15:42;12.90;99.90
16515;DHT22;8370;52.556;7.970;2023-06-01T00:18:08;12.90;99.90
16515;DHT22;8370;52.556;7.970;2023-06-01T00:20:38;12.90;99.90
16515;DHT22;8370;52.556;7.970;2023-06-01T00:23:04;12.80;99.90
16515;DHT22;8370;52.556;7.970;2023-06-01T00:25:29;12.80;99.90
16515;DHT22;8370;52.556;7.970;2023-06-01T00:27:55;12.80;99.90
16515;DHT22;8370;52.556;7.970;2023-06-01T00:30:21;12.80;99.90
16515;DHT22;8370;52.556;7.970;2023-06-01T00:32:47;12.80;99.90
16515;DHT22;8370;52.556;7.970;2023-06-01T00:35:12;12.80;99.90
16515;DHT22;8370;52.556;7.970;2023-06-01T00:37:37;12.90;99.90
16515;DHT22;8370;52.556;7.970;2023-06-01T00:40:03;12.90;99.90
16515;DHT22;8370;52.556;7.970;2023-06-01T00:42:29;12.90;99.90
16515;DHT22;8370;52.556;7.970;2023-06-01T00:44:54;12.90;99.90
16515;DHT22;8370;52.556;7.970;2023-06-01T00:47:20;12.90;99.90
16515;DHT22;8370;52.556;7.970;2023-06-01T00:49:46;12.90;99.90
16515;DHT22;8370;52.556;7.970;2023-06-01T00:52:12;12.90;99.90
16515;DHT22;8370;52.556;7.970;2023-06-01T00:54:37;12.90;99.90
16515;DHT22;8370;52.556;7.970;2023-06-01T00:57:03;12.90;99.90
16515;DHT22;8370;52.556;7.970;2023-06-01T00:59:29;12.90;99.90
16515;DHT22;8370;52.556;7.970;2023-06-01T01:01:54;12.80;99.90
16515;DHT22;8370;52.556;7.970;2023-06-01T01:04:20;12.80;99.90
16515;DHT22;8370;52.556;7.970;2023-06-01T01:11:50;12.70;99.90
16515;DHT22;8370;52.556;7.970;2023-06-01T01:16:47;12.70;99.90
16515;DHT22;8370;52.556;7.970;2023-06-01T01:19:29;12.50;99.90
16515;DHT22;8370;52.556;7.970;2023-06-01T01:22:02;12.50;99.90
16515;DHT22;8370;52.556;7.970;2023-06-01T01:29:36;12.50;99.90
16515;DHT22;8370;52.556;7.970;2023-06-01T01:32:03;12.50;99.90
16515;DHT22;8370;52.556;7.970;2023-06-01T01:34:28;12.50;99.90
16515;DHT22;8370;52.556;7.970;2023-06-01T01:36:55;12.50;99.90
16515;DHT22;8370;52.556;7.970;2023-06-01T01:39:20;12.50;99.90
16515;DHT22;8370;52.556;7.970;2023-06-01T01:41:46;12.50;99.90
16515;DHT22;8370;52.556;7.970;2023-06-01T01:44:11;12.50;99.90
16515;DHT22;8370;52.556;7.970;2023-06-01T01:51:37;12.60;99.90
16515;DHT22;8370;52.556;7.970;2023-06-01T01:54:04;12.50;99.90
16515;DHT22;8370;52.556;7.970;2023-06-01T01:56:30;12.50;99.90
16515;DHT22;8370;52.556;7.970;2023-06-01T01:58:56;12.50;99.90
16515;DHT22;8370;52.556;7.970;2023-06-01T02:01:21;12.50;99.90
16515;DHT22;8370;52.556;7.970;2023-06-01T02:03:56;12.50;99.90
16515;DHT22;8370;52.556;7.970;2023-06-01T02:06:22;12.40;99.90
16515;DHT22;8370;52.556;7.970;2023-06-01T02:08:47;12.40;99.90
16515;DHT22;8370;52.556;7.970;2023-06-01T02:11:13;12.40;99.90
16515;DHT22;8370;52.556;7.970;2023-06-01T02:13:38;12.40;99.90
16515;DHT22;8370;52.556;7.970;2023-06-01T02:16:04;12.50;99.90
16515;DHT22;8370;52.556;7.970;2023-06-01T02:18:29;12.50;99.90
16515;DHT22;8370;52.556;7.970;2023-06-01T02:20:57;12.50;99.90
16515;DHT22;8370;52.556;7.970;2023-06-01T02:23:22;12.50;99.90
16515;DHT22;8370;52.556;7.970;2023-06-01T02:25:48;12.50;99.90
16515;DHT22;8370;52.556;7.970;2023-06-01T02:28:13;12.50;99.90
16515;DHT22;8370;52.556;7.970;2023-06-01T02:30:38;12.50;99.90
16515;DHT22;8370;52.556;7.970;2023-06-01T02:33:04;12.50;99.90
16515;DHT22;8370;52.556;7.970;2023-06-01T02:35:29;12.40;99.90
16515;DHT22;8370;52.556;7.970;2023-06-01T02:37:55;12.40;99.90
16515;DHT22;8370;52.556;7.970;2023-06-01T02:40:22;12.40;99.90
16515;DHT22;8370;52.556;7.970;2023-06-01T02:42:47;12.40;99.90
16515;DHT22;8370;52.556;7.970;2023-06-01T02:45:13;12.30;99.90
16515;DHT22;8370;52.556;7.970;2023-06-01T02:47:38;12.30;99.90
16515;DHT22;8370;52.556;7.970;2023-06-01T02:50:04;12.30;99.90
16515;DHT22;8370;52.556;7.970;2023-06-01T02:52:30;12.30;99.90
16515;DHT22;8370;52.556;7.970;2023-06-01T02:54:56;12.20;99.90
16515;DHT22;8370;52.556;7.970;2023-06-01T02:57:21;12.20;99.90
16515;DHT22;8370;52.556;7.970;2023-06-01T02:59:47;12.20;99.90
16515;DHT22;8370;52.556;7.970;2023-06-01T03:02:12;12.20;99.90
16515;DHT22;8370;52.556;7.970;2023-06-01T03:04:38;12.10;99.90
16515;DHT22;8370;52.556;7.970;2023-06-01T03:07:04;12.10;99.90
16515;DHT22;8370;52.556;7.970;2023-06-01T03:09:29;12.10;99.90
16515;DHT22;8370;52.556;7.970;2023-06-01T03:11:55;12.10;99.90
16515;DHT22;8370;52.556;7.970;2023-06-01T03:14:20;12.10;99.90
16515;DHT22;8370;52.556;7.970;2023-06-01T03:16:46;12.10;99.90
16515;DHT22;8370;52.556;7.970;2023-06-01T03:19:11;12.10;99.90
16515;DHT22;8370;52.556;7.970;2023-06-01T03:21:37;12.10;99.90
16515;DHT22;8370;52.556;7.970;2023-06-01T03:24:02;12.10;99.90
16515;DHT22;8370;52.556;7.970;2023-06-01T03:26:27;12.10;99.90
16515;DHT22;8370;52.556;7.970;2023-06-01T03:28:53;12.10;99.90
16515;DHT22;8370;52.556;7.970;2023-06-01T03:31:18;12.10;99.90
16515;DHT22;8370;52.556;7.970;2023-06-01T03:33:44;12.10;99.90
16515;DHT22;8370;52.556;7.970;2023-06-01T03:36:10;12.20;99.90
16515;DHT22;8370;52.556;7.970;2023-06-01T03:38:35;12.20;99.90
16515;DHT22;8370;52.556;7.970;2023-06-01T03:41:01;12.20;99.90
16515;DHT22;8370;52.556;7.970;2023-06-01T03:43:26;12.20;99.90
16515;DHT22;8370;52.556;7.970;2023-06-01T03:45:52;12.20;99.90
16515;DHT22;8370;52.556;7.970;2023-06-01T03:48:17;12.20;99.90
16515;DHT22;8370;52.556;7.970;2023-06-01T03:50:43;12.20;99.90
16515;DHT22;8370;52.556;7.970;2023-06-01T03:53:08;12.10;99.90
16515;DHT22;8370;52.556;7.970;2023-06-01T03:55:33;12.10;99.90
16515;DHT22;8370;52.556;7.970;2023-06-01T03:58:00;12.10;99.90
16515;DHT22;8370;52.556;7.970;2023-06-01T04:00:27;12.10;99.90
16515;DHT22;8370;52.556;7.970;2023-06-01T04:02:54;12.10;99.90
16515;DHT22;8370;52.556;7.970;2023-06-01T04:05:20;12.20;99.90
16515;DHT22;8370;52.556;7.970;2023-06-01T04:07:46;12.20;99.90
16515;DHT22;8370;52.556;7.970;2023-06-01T04:10:12;12.20;99.90
16515;DHT22;8370;52.556;7.970;2023-06-01T04:12:42;12.20;99.90
16515;DHT22;8370;52.556;7.970;2023-06-01T04:15:08;12.20;99.90
16515;DHT22;8370;52.556;7.970;2023-06-01T04:17:38;12.20;99.90
16515;DHT22;8370;52.556;7.970;2023-06-01T04:20:08;12.20;99.90
16515;DHT22;8370;52.556;7.970;2023-06-01T04:22:37;12.20;99.90
16515;DHT22;8370;52.556;7.970;2023-06-01T04:25:06;12.20;99.90
16515;DHT22;8370;52.556;7.970;2023-06-01T04:27:33;12.20;99.90
16515;DHT22;8370;52.556;7.970;2023-06-01T04:30:03;12.20;99.90
16515;DHT22;8370;52.556;7.970;2023-06-01T04:32:28;12.20;99.90
16515;DHT22;8370;52.556;7.970;2023-06-01T04:34:54;12.20;99.90
16515;DHT22;8370;52.556;7.970;2023-06-01T04:37:22;12.20;99.90
16515;DHT22;8370;52.556;7.970;2023-06-01T04:39:47;12.20;99.90
16515;DHT22;8370;52.556;7.970;2023-06-01T04:42:17;12.20;99.90
16515;DHT22;8370;52.556;7.970;2023-06-01T04:44:44;12.30;99.90
16515;DHT22;8370;52.556;7.970;2023-06-01T04:47:12;12.30;99.90
16515;DHT22;8370;52.556;7.970;2023-06-01T04:49:39;12.30;99.90
16515;DHT22;8370;52.556;7.970;2023-06-01T04:52:07;12.30;99.90
16515;DHT22;8370;52.556;7.970;2023-06-01T04:54:32;12.30;99.90
16515;DHT22;8370;52.556;7.970;2023-06-01T04:56:58;12.30;99.90
16515;DHT22;8370;52.556;7.970;2023-06-01T04:59:23;12.30;99.90
16515;DHT22;8370;52.556;7.970;2023-06-01T05:01:49;12.30;99.90
16515;DHT22;8370;52.556;7.970;2023-06-01T05:04:14;12.30;99.90
16515;DHT22;8370;52.556;7.970;2023-06-01T05:06:40;12.30;99.90
16515;DHT22;8370;52.556;7.970;2023-06-01T05:09:05;12.30;99.90
16515;DHT22;8370;52.556;7.970;2023-06-01T05:11:30;12.30;99.90
16515;DHT22;8370;52.556;7.970;2023-06-01T05:13:56;12.30;99.90
16515;DHT22;8370;52.556;7.970;2023-06-01T05:16:26;12.30;99.90
16515;DHT22;8370;52.556;7.970;2023-06-01T05:18:52;12.30;99.90
16515;DHT22;8370;52.556;7.970;2023-06-01T05:21:17;12.30;99.90
16515;DHT22;8370;52.556;7.970;2023-06-01T05:23:43;12.30;99.90
16515;DHT22;8370;52.556;7.970;2023-06-01T05:26:08;12.30;99.90
16515;DHT22;8370;52.556;7.970;2023-06-01T05:28:34;12.30;99.90
16515;DHT22;8370;52.556;7.970;2023-06-01T05:31:01;12.40;99.90
16515;DHT22;8370;52.556;7.970;2023-06-01T05:33:26;12.30;99.90
16515;DHT22;8370;52.556;7.970;2023-06-01T05:35:52;12.30;99.90
16515;DHT22;8370;52.556;7.970;2023-06-01T05:38:18;12.30;99.90
16515;DHT22;8370;52.556;7.970;2023-06-01T05:40:44;12.30;99.90
16515;DHT22;8370;52.556;7.970;2023-06-01T05:43:09;12.30;99.90
16515;DHT22;8370;52.556;7.970;2023-06-01T05:45:35;12.30;99.90
16515;DHT22;8370;52.556;7.970;2023-06-01T05:48:01;12.40;99.90
16515;DHT22;8370;52.556;7.970;2023-06-01T05:50:26;12.40;99.90
16515;DHT22;8370;52.556;7.970;2023-06-01T05:52:52;12.40;99.90
16515;DHT22;8370;52.556;7.970;2023-06-01T05:55:17;12.50;99.90
16515;DHT22;8370;52.556;7.970;2023-06-01T05:57:42;12.40;99.90
16515;DHT22;8370;52.556;7.970;2023-06-01T06:00:08;12.40;99.90
16515;DHT22;8370;52.556;7.970;2023-06-01T06:02:38;12.50;99.90
16515;DHT22;8370;52.556;7.970;2023-06-01T06:05:03;12.50;99.90
16515;DHT22;8370;52.556;7.970;2023-06-01T06:07:29;12.50;99.90
16515;DHT22;8370;52.556;7.970;2023-06-01T06:09:55;12.50;99.90
16515;DHT22;8370;52.556;7.970;2023-06-01T06:12:20;12.50;99.90
16515;DHT22;8370;52.556;7.970;2023-06-01T06:14:46;12.60;99.90
16515;DHT22;8370;52.556;7.970;2023-06-01T06:17:11;12.60;99.90
16515;DHT22;8370;52.556;7.970;2023-06-01T06:19:37;12.70;99.90
16515;DHT22;8370;52.556;7.970;2023-06-01T06:22:02;12.70;99.90
16515;DHT22;8370;52.556;7.970;2023-06-01T06:24:28;12.70;99.90
16515;DHT22;8370;52.556;7.970;2023-06-01T06:26:53;12.70;99.90
16515;DHT22;8370;52.556;7.970;2023-06-01T06:29:19;12.70;99.90
16515;DHT22;8370;52.556;7.970;2023-06-01T06:31:44;12.70;99.90
16515;DHT22;8370;52.556;7.970;2023-06-01T06:34:13;12.80;99.90
16515;DHT22;8370;52.556;7.970;2023-06-01T06:36:38;12.80;99.90
16515;DHT22;8370;52.556;7.970;2023-06-01T06:39:04;12.70;99.90
16515;DHT22;8370;52.556;7.970;2023-06-01T06:41:29;12.80;99.90
16515;DHT22;8370;52.556;7.970;2023-06-01T06:43:54;12.70;99.90
16515;DHT22;8370;52.556;7.970;2023-06-01T06:46:20;12.70;99.90
16515;DHT22;8370;52.556;7.970;2023-06-01T06:48:46;12.80;99.90
16515;DHT22;8370;52.556;7.970;2023-06-01T06:51:11;12.80;99.90
16515;DHT22;8370;52.556;7.970;2023-06-01T06:53:37;12.80;99.90
16515;DHT22;8370;52.556;7.970;2023-06-01T06:56:02;12.80;99.90
16515;DHT22;8370;52.556;7.970;2023-06-01T06:58:27;12.90;99.90
16515;DHT22;8370;52.556;7.970;2023-06-01T07:00:53;12.80;99.90
16515;DHT22;8370;52.556;7.970;2023-06-01T07:03:18;12.80;99.90
16515;DHT22;8370;52.556;7.970;2023-06-01T07:05:44;12.90;99.90
16515;DHT22;8370;52.556;7.970;2023-06-01T07:08:13;12.90;99.90
16515;DHT22;8370;52.556;7.970;2023-06-01T07:10:38;12.90;99.90
16515;DHT22;8370;52.556;7.970;2023-06-01T07:13:04;12.90;99.90
16515;DHT22;8370;52.556;7.970;2023-06-01T07:15:29;13.00;99.90
16515;DHT22;8370;52.556;7.970;2023-06-01T07:17:55;13.00;99.90
16515;DHT22;8370;52.556;7.970;2023-06-01T07:20:21;13.10;99.90
16515;DHT22;8370;52.556;7.970;2023-06-01T07:22:46;13.20;99.90
16515;DHT22;8370;52.556;7.970;2023-06-01T07:25:12;13.20;99.90
16515;DHT22;8370;52.556;7.970;2023-06-01T07:27:38;13.20;99.90
16515;DHT22;8370;52.556;7.970;2023-06-01T07:30:08;13.20;99.90
16515;DHT22;8370;52.556;7.970;2023-06-01T07:32:34;13.20;99.90
16515;DHT22;8370;52.556;7.970;2023-06-01T07:35:00;13.20;99.90
16515;DHT22;8370;52.556;7.970;2023-06-01T07:37:27;13.20;99.90
16515;DHT22;8370;52.556;7.970;2023-06-01T07:39:53;13.20;99.90
16515;DHT22;8370;52.556;7.970;2023-06-01T07:42:19;13.10;99.90
16515;DHT22;8370;52.556;7.970;2023-06-01T07:44:45;13.10;99.90
16515;DHT22;8370;52.556;7.970;2023-06-01T07:47:11;13.20;99.90
16515;DHT22;8370;52.556;7.970;2023-06-01T07:49:36;13.20;99.90
16515;DHT22;8370;52.556;7.970;2023-06-01T07:52:02;13.30;99.90
16515;DHT22;8370;52.556;7.970;2023-06-01T07:54:28;13.30;99.90
16515;DHT22;8370;52.556;7.970;2023-06-01T07:56:54;13.40;99.90
16515;DHT22;8370;52.556;7.970;2023-06-01T07:59:19;13.40;99.90
16515;DHT22;8370;52.556;7.970;2023-06-01T08:01:48;13.40;99.90
16515;DHT22;8370;52.556;7.970;2023-06-01T08:04:13;13.40;99.90
16515;DHT22;8370;52.556;7.970;2023-06-01T08:06:39;13.40;99.90
16515;DHT22;8370;52.556;7.970;2023-06-01T08:09:06;13.40;99.90
16515;DHT22;8370;52.556;7.970;2023-06-01T08:11:32;13.40;99.90
16515;DHT22;8370;52.556;7.970;2023-06-01T08:13:58;13.40;99.90
16515;DHT22;8370;52.556;7.970;2023-06-01T08:16:28;13.50;99.90
16515;DHT22;8370;52.556;7.970;2023-06-01T08:18:54;13.50;99.90
16515;DHT22;8370;52.556;7.970;2023-06-01T08:21:22;13.50;99.90
16515;DHT22;8370;52.556;7.970;2023-06-01T08:23:47;13.50;99.90
16515;DHT22;8370;52.556;7.970;2023-06-01T08:26:13;13.60;99.90
16515;DHT22;8370;52.556;7.970;2023-06-01T08:28:38;13.60;99.90
16515;DHT22;8370;52.556;7.970;2023-06-01T08:31:04;13.70;99.90
16515;DHT22;8370;52.556;7.970;2023-06-01T08:33:29;13.80;99.90
16515;DHT22;8370;52.556;7.970;2023-06-01T08:35:55;13.90;99.90
16515;DHT22;8370;52.556;7.970;2023-06-01T08:38:21;13.90;99.90
16515;DHT22;8370;52.556;7.970;2023-06-01T08:40:47;13.90;99.90
16515;DHT22;8370;52.556;7.970;2023-06-01T08:43:15;13.90;99.90
16515;DHT22;8370;52.556;7.970;2023-06-01T08:45:43;14.10;99.90
16515;DHT22;8370;52.556;7.970;2023-06-01T08:48:08;14.20;99.90
16515;DHT22;8370;52.556;7.970;2023-06-01T08:50:37;14.20;99.90
16515;DHT22;8370;52.556;7.970;2023-06-01T08:53:03;14.30;99.90
16515;DHT22;8370;52.556;7.970;2023-06-01T08:55:29;14.30;99.90
16515;DHT22;8370;52.556;7.970;2023-06-01T08:57:54;14.30;99.90
16515;DHT22;8370;52.556;7.970;2023-06-01T09:00:20;14.30;99.90
16515;DHT22;8370;52.556;7.970;2023-06-01T09:02:46;14.20;99.90
16515;DHT22;8370;52.556;7.970;2023-06-01T09:05:13;14.20;99.90
16515;DHT22;8370;52.556;7.970;2023-06-01T09:07:39;14.20;99.90
16515;DHT22;8370;52.556;7.970;2023-06-01T09:10:04;14.20;99.90
16515;DHT22;8370;52.556;7.970;2023-06-01T09:12:30;14.20;99.90
16515;DHT22;8370;52.556;7.970;2023-06-01T09:15:06;14.30;99.90
16515;DHT22;8370;52.556;7.970;2023-06-01T09:17:32;14.40;99.90
16515;DHT22;8370;52.556;7.970;2023-06-01T09:19:57;14.50;99.90
16515;DHT22;8370;52.556;7.970;2023-06-01T09:22:23;14.50;99.90
16515;DHT22;8370;52.556;7.970;2023-06-01T09:24:58;14.50;99.90
16515;DHT22;8370;52.556;7.970;2023-06-01T09:27:24;14.50;99.90
16515;DHT22;8370;52.556;7.970;2023-06-01T09:29:57;14.40;99.90
16515;DHT22;8370;52.556;7.970;2023-06-01T09:32:24;14.40;99.90
16515;DHT22;8370;52.556;7.970;2023-06-01T09:34:50;14.50;99.90
16515;DHT22;8370;52.556;7.970;2023-06-01T09:37:16;14.60;99.90
16515;DHT22;8370;52.556;7.970;2023-06-01T09:39:42;14.60;99.90
16515;DHT22;8370;52.556;7.970;2023-06-01T09:42:09;14.70;99.90
16515;DHT22;8370;52.556;7.970;2023-06-01T09:44:35;14.80;99.90
16515;DHT22;8370;52.556;7.970;2023-06-01T09:47:05;14.90;99.90
16515;DHT22;8370;52.556;7.970;2023-06-01T09:49:31;14.90;99.90
16515;DHT22;8370;52.556;7.970;2023-06-01T09:54:29;14.90;99.90
16515;DHT22;8370;52.556;7.970;2023-06-01T09:56:56;14.80;99.90
16515;DHT22;8370;52.556;7.970;2023-06-01T09:59:22;14.90;99.90
16515;DHT22;8370;52.556;7.970;2023-06-01T10:01:49;14.90;99.90
16515;DHT22;8370;52.556;7.970;2023-06-01T10:04:17;15.00;99.90
16515;DHT22;8370;52.556;7.970;2023-06-01T10:06:45;15.10;99.90
16515;DHT22;8370;52.556;7.970;2023-06-01T10:09:11;15.00;99.90
16515;DHT22;8370;52.556;7.970;2023-06-01T10:11:43;15.00;99.90
16515;DHT22;8370;52.556;7.970;2023-06-01T10:14:09;15.00;99.90
16515;DHT22;8370;52.556;7.970;2023-06-01T10:16:34;15.00;99.90
16515;DHT22;8370;52.556;7.970;2023-06-01T10:19:00;15.00;99.90
16515;DHT22;8370;52.556;7.970;2023-06-01T10:21:26;14.90;99.90
16515;DHT22;8370;52.556;7.970;2023-06-01T10:23:52;14.90;99.90
16515;DHT22;8370;52.556;7.970;2023-06-01T10:26:18;15.00;99.90
16515;DHT22;8370;52.556;7.970;2023-06-01T10:28:45;15.00;99.90
16515;DHT22;8370;52.556;7.970;2023-06-01T10:33:56;15.10;99.90
16515;DHT22;8370;52.556;7.970;2023-06-01T10:36:23;15.10;99.90
16515;DHT22;8370;52.556;7.970;2023-06-01T10:38:48;15.10;99.90
16515;DHT22;8370;52.556;7.970;2023-06-01T10:41:27;15.10;99.90
16515;DHT22;8370;52.556;7.970;2023-06-01T10:43:55;15.10;99.90
16515;DHT22;8370;52.556;7.970;2023-06-01T10:46:33;15.10;99.90
16515;DHT22;8370;52.556;7.970;2023-06-01T10:48:59;15.10;99.90
16515;DHT22;8370;52.556;7.970;2023-06-01T10:51:24;15.20;99.90
16515;DHT22;8370;52.556;7.970;2023-06-01T10:53:50;15.20;99.90
16515;DHT22;8370;52.556;7.970;2023-06-01T10:56:23;15.30;99.90
16515;DHT22;8370;52.556;7.970;2023-06-01T11:01:37;15.40;99.90
16515;DHT22;8370;52.556;7.970;2023-06-01T11:04:02;15.30;99.90
16515;DHT22;8370;52.556;7.970;2023-06-01T11:06:32;15.20;99.90
16515;DHT22;8370;52.556;7.970;2023-06-01T11:08:59;15.20;99.90
16515;DHT22;8370;52.556;7.970;2023-06-01T11:11:55;15.20;99.90
16515;DHT22;8370;52.556;7.970;2023-06-01T11:14:17;15.20;99.90
16515;DHT22;8370;52.556;7.970;2023-06-01T11:16:43;15.20;99.90
16515;DHT22;8370;52.556;7.970;2023-06-01T11:19:09;15.10;99.90
16515;DHT22;8370;52.556;7.970;2023-06-01T11:21:37;15.00;99.90
16515;DHT22;8370;52.556;7.970;2023-06-01T11:24:08;15.00;99.90
16515;DHT22;8370;52.556;7.970;2023-06-01T11:26:44;14.90;99.90
16515;DHT22;8370;52.556;7.970;2023-06-01T11:29:11;14.90;99.90
16515;DHT22;8370;52.556;7.970;2023-06-01T11:31:42;14.90;99.90
16515;DHT22;8370;52.556;7.970;2023-06-01T11:34:08;14.90;99.90
16515;DHT22;8370;52.556;7.970;2023-06-01T11:36:38;14.90;99.90
16515;DHT22;8370;52.556;7.970;2023-06-01T11:39:04;14.90;99.90
16515;DHT22;8370;52.556;7.970;2023-06-01T11:41:33;14.90;99.90
16515;DHT22;8370;52.556;7.970;2023-06-01T11:43:58;14.80;99.90
16515;DHT22;8370;52.556;7.970;2023-06-01T11:46:24;14.90;99.90
16515;DHT22;8370;52.556;7.970;2023-06-01T11:49:01;15.00;99.90
16515;DHT22;8370;52.556;7.970;2023-06-01T11:51:28;15.00;99.90
16515;DHT22;8370;52.556;7.970;2023-06-01T11:53:53;15.10;99.90
16515;DHT22;8370;52.556;7.970;2023-06-01T11:56:20;15.00;99.90
16515;DHT22;8370;52.556;7.970;2023-06-01T11:58:56;15.00;99.90
16515;DHT22;8370;52.556;7.970;2023-06-01T12:01:21;15.00;99.90
16515;DHT22;8370;52.556;7.970;2023-06-01T12:03:47;14.90;99.90
16515;DHT22;8370;52.556;7.970;2023-06-01T12:06:22;14.80;99.90
16515;DHT22;8370;52.556;7.970;2023-06-01T12:08:51;14.80;99.90
16515;DHT22;8370;52.556;7.970;2023-06-01T12:11:18;14.80;99.90
16515;DHT22;8370;52.556;7.970;2023-06-01T12:13:44;14.90;99.90
16515;DHT22;8370;52.556;7.970;2023-06-01T12:16:12;14.90;99.90
16515;DHT22;8370;52.556;7.970;2023-06-01T12:18:37;14.90;99.90
16515;DHT22;8370;52.556;7.970;2023-06-01T12:21:08;14.90;99.90
16515;DHT22;8370;52.556;7.970;2023-06-01T12:23:33;15.00;99.90
16515;DHT22;8370;52.556;7.970;2023-06-01T12:25:59;14.90;99.90
16515;DHT22;8370;52.556;7.970;2023-06-01T12:28:25;14.90;99.90
16515;DHT22;8370;52.556;7.970;2023-06-01T12:31:07;14.90;99.90
16515;DHT22;8370;52.556;7.970;2023-06-01T12:33:34;14.90;99.90
16515;DHT22;8370;52.556;7.970;2023-06-01T12:36:00;14.90;99.90
16515;DHT22;8370;52.556;7.970;2023-06-01T12:38:25;14.90;99.90
16515;DHT22;8370;52.556;7.970;2023-06-01T12:43:33;15.10;99.90
16515;DHT22;8370;52.556;7.970;2023-06-01T12:45:59;15.10;99.90
16515;DHT22;8370;52.556;7.970;2023-06-01T12:48:31;15.20;99.90
16515;DHT22;8370;52.556;7.970;2023-06-01T12:50:58;15.20;99.90
16515;DHT22;8370;52.556;7.970;2023-06-01T12:53:23;15.30;99.90
16515;DHT22;8370;52.556;7.970;2023-06-01T12:55:48;15.20;99.90
16515;DHT22;8370;52.556;7.970;2023-06-01T12:58:14;15.10;99.90
16515;DHT22;8370;52.556;7.970;2023-06-01T13:00:39;15.10;99.90
16515;DHT22;8370;52.556;7.970;2023-06-01T13:03:05;15.10;99.90
16515;DHT22;8370;52.556;7.970;2023-06-01T13:05:32;15.20;99.90
16515;DHT22;8370;52.556;7.970;2023-06-01T13:07:58;15.40;99.90
16515;DHT22;8370;52.556;7.970;2023-06-01T13:10:25;15.60;99.90
16515;DHT22;8370;52.556;7.970;2023-06-01T13:12:51;15.80;99.90
16515;DHT22;8370;52.556;7.970;2023-06-01T13:15:16;16.00;99.90
16515;DHT22;8370;52.556;7.970;2023-06-01T13:17:41;16.30;99.90
16515;DHT22;8370;52.556;7.970;2023-06-01T13:20:07;16.60;99.90
16515;DHT22;8370;52.556;7.970;2023-06-01T13:22:35;16.80;99.90
16515;DHT22;8370;52.556;7.970;2023-06-01T13:25:01;16.90;99.90
16515;DHT22;8370;52.556;7.970;2023-06-01T13:27:27;17.00;99.90
16515;DHT22;8370;52.556;7.970;2023-06-01T13:29:52;17.00;99.90
16515;DHT22;8370;52.556;7.970;2023-06-01T13:32:17;16.90;99.90
16515;DHT22;8370;52.556;7.970;2023-06-01T13:34:43;16.90;99.90
16515;DHT22;8370;52.556;7.970;2023-06-01T13:37:08;16.90;99.90
16515;DHT22;8370;52.556;7.970;2023-06-01T13:39:34;17.00;99.90
16515;DHT22;8370;52.556;7.970;2023-06-01T13:41:59;16.90;99.90
16515;DHT22;8370;52.556;7.970;2023-06-01T13:44:25;17.00;99.90
16515;DHT22;8370;52.556;7.970;2023-06-01T13:46:51;17.10;99.90
16515;DHT22;8370;52.556;7.970;2023-06-01T13:49:16;17.20;99.90
16515;DHT22;8370;52.556;7.970;2023-06-01T13:51:42;17.30;99.90
16515;DHT22;8370;52.556;7.970;2023-06-01T13:54:07;17.20;99.90
16515;DHT22;8370;52.556;7.970;2023-06-01T13:56:33;17.20;99.90
16515;DHT22;8370;52.556;7.970;2023-06-01T13:58:58;17.20;99.90
16515;DHT22;8370;52.556;7.970;2023-06-01T14:01:24;17.20;99.90
16515;DHT22;8370;52.556;7.970;2023-06-01T14:03:50;17.10;99.90
16515;DHT22;8370;52.556;7.970;2023-06-01T14:06:15;17.00;99.90
16515;DHT22;8370;52.556;7.970;2023-06-01T14:08:41;17.00;99.90
16515;DHT22;8370;52.556;7.970;2023-06-01T14:11:07;16.90;99.90
16515;DHT22;8370;52.556;7.970;2023-06-01T14:13:32;16.90;99.90
16515;DHT22;8370;52.556;7.970;2023-06-01T14:15:57;17.00;99.90
16515;DHT22;8370;52.556;7.970;2023-06-01T14:18:23;17.00;99.90
16515;DHT22;8370;52.556;7.970;2023-06-01T14:20:49;17.00;99.90
16515;DHT22;8370;52.556;7.970;2023-06-01T14:23:15;17.00;99.90
16515;DHT22;8370;52.556;7.970;2023-06-01T14:25:40;17.10;99.90
16515;DHT22;8370;52.556;7.970;2023-06-01T14:28:06;17.00;99.90
16515;DHT22;8370;52.556;7.970;2023-06-01T14:30:31;17.00;99.90
16515;DHT22;8370;52.556;7.970;2023-06-01T14:32:56;16.90;99.90
16515;DHT22;8370;52.556;7.970;2023-06-01T14:35:22;16.90;99.90
16515;DHT22;8370;52.556;7.970;2023-06-01T14:37:47;16.90;99.90
16515;DHT22;8370;52.556;7.970;2023-06-01T14:40:13;16.90;99.90
16515;DHT22;8370;52.556;7.970;2023-06-01T14:42:38;16.90;99.90
16515;DHT22;8370;52.556;7.970;2023-06-01T14:45:05;16.90;99.90
16515;DHT22;8370;52.556;7.970;2023-06-01T14:47:31;16.80;99.90
16515;DHT22;8370;52.556;7.970;2023-06-01T14:49:56;16.70;99.90
16515;DHT22;8370;52.556;7.970;2023-06-01T14:52:22;16.70;99.90
16515;DHT22;8370;52.556;7.970;2023-06-01T14:54:47;16.60;99.90
16515;DHT22;8370;52.556;7.970;2023-06-01T14:57:14;16.60;99.90
16515;DHT22;8370;52.556;7.970;2023-06-01T14:59:39;16.50;99.90
16515;DHT22;8370;52.556;7.970;2023-06-01T15:02:05;16.60;99.90
16515;DHT22;8370;52.556;7.970;2023-06-01T15:04:32;16.60;99.90
16515;DHT22;8370;52.556;7.970;2023-06-01T15:06:58;16.60;99.90
16515;DHT22;8370;52.556;7.970;2023-06-01T15:09:24;16.50;99.90
16515;DHT22;8370;52.556;7.970;2023-06-01T15:11:49;16.50;99.90
16515;DHT22;8370;52.556;7.970;2023-06-01T15:14:15;16.50;99.90
16515;DHT22;8370;52.556;7.970;2023-06-01T15:16:40;16.50;99.90
16515;DHT22;8370;52.556;7.970;2023-06-01T15:19:06;16.50;99.90
16515;DHT22;8370;52.556;7.970;2023-06-01T15:21:31;16.40;99.90
16515;DHT22;8370;52.556;7.970;2023-06-01T15:23:56;16.40;99.90
16515;DHT22;8370;52.556;7.970;2023-06-01T15:26:22;16.30;99.90
16515;DHT22;8370;52.556;7.970;2023-06-01T15:28:47;16.30;99.90
16515;DHT22;8370;52.556;7.970;2023-06-01T15:31:13;16.20;99.90
16515;DHT22;8370;52.556;7.970;2023-06-01T15:33:38;16.20;99.90
16515;DHT22;8370;52.556;7.970;2023-06-01T15:36:04;16.20;99.90
16515;DHT22;8370;52.556;7.970;2023-06-01T15:38:29;16.10;99.90
16515;DHT22;8370;52.556;7.970;2023-06-01T15:40:55;16.00;99.90
16515;DHT22;8370;52.556;7.970;2023-06-01T15:43:21;15.80;99.90
16515;DHT22;8370;52.556;7.970;2023-06-01T15:45:46;15.80;99.90
16515;DHT22;8370;52.556;7.970;2023-06-01T15:48:12;15.80;99.90
16515;DHT22;8370;52.556;7.970;2023-06-01T15:50:37;15.70;99.90
16515;DHT22;8370;52.556;7.970;2023-06-01T15:53:03;15.70;99.90
16515;DHT22;8370;52.556;7.970;2023-06-01T15:55:28;15.60;99.90
16515;DHT22;8370;52.556;7.970;2023-06-01T15:57:53;15.60;99.90
16515;DHT22;8370;52.556;7.970;2023-06-01T16:00:19;15.70;99.90
16515;DHT22;8370;52.556;7.970;2023-06-01T16:02:44;15.60;99.90
16515;DHT22;8370;52.556;7.970;2023-06-01T16:05:10;15.50;99.90
16515;DHT22;8370;52.556;7.970;2023-06-01T16:07:35;15.50;99.90